Time;durP1;ratioP1;P1;durP2;ratioP2;P2;SDS_P1;SDS_P2;PMS_P1;PMS_P2;Temp;Humidity;BMP_temperature;BMP_pressure;BME280_temperature;BME280_humidity;BME280_pressure;Samples;Min_cycle;Max_cycle;Signal;HPM_P1;HPM_P2
2022/03/29 00:01:53;;;;;;;21.20;15.00;;;;;;;;;;4948873;28;20450;-88
2022/03/29 00:04:39;;;;;;;22.63;14.47;;;;;;;;;;5069523;23;20811;-91
2022/03/29 00:07:44;;;;;;;23.10;13.77;;;;;;;;;;4971144;29;20453;-91
2022/03/29 00:10:50;;;;;;;19.80;14.67;;;;;;;;;;4959717;29;20478;-91
2022/03/29 00:13:36;;;;;;;21.20;13.60;;;;;;;;;;4951060;29;20433;-86
2022/03/29 00:16:02;;;;;;;18.33;15.10;;;;;;;;;;4934113;29;20439;-89
2022/03/29 00:18:28;;;;;;;28.13;16.53;;;;;;;;;;4912100;29;20648;-89
2022/03/29 00:20:54;;;;;;;22.40;15.60;;;;;;;;;;4909128;29;20450;-89
2022/03/29 00:23:20;;;;;;;22.27;13.73;;;;;;;;;;4936167;29;20903;-90
2022/03/29 00:25:46;;;;;;;26.43;14.60;;;;;;;;;;4929039;29;20436;-90
2022/03/29 00:28:14;;;;;;;23.60;14.20;;;;;;;;;;4923393;29;20500;-91
2022/03/29 00:30:40;;;;;;;20.23;14.17;;;;;;;;;;4950287;29;20537;-90
2022/03/29 00:33:06;;;;;;;19.10;15.30;;;;;;;;;;4942787;29;20450;-89
2022/03/29 00:35:32;;;;;;;21.40;15.30;;;;;;;;;;4925535;29;20452;-89
2022/03/29 00:37:58;;;;;;;20.70;15.67;;;;;;;;;;4946648;29;20429;-89
2022/03/29 00:40:24;;;;;;;19.50;14.40;;;;;;;;;;4954343;29;20489;-89
2022/03/29 00:42:51;;;;;;;24.37;15.50;;;;;;;;;;4952972;29;20525;-90
2022/03/29 00:45:17;;;;;;;21.37;13.97;;;;;;;;;;4938067;29;20461;-88
2022/03/29 00:47:45;;;;;;;28.60;16.30;;;;;;;;;;4935722;29;20781;-90
2022/03/29 00:50:11;;;;;;;18.90;15.77;;;;;;;;;;4919835;29;20506;-89
2022/03/29 00:52:38;;;;;;;21.37;14.83;;;;;;;;;;4926841;29;20457;-90
2022/03/29 00:55:08;;;;;;;19.33;13.93;;;;;;;;;;4934205;29;20494;-90
2022/03/29 00:57:34;;;;;;;21.53;15.50;;;;;;;;;;4915280;29;20944;-89
2022/03/29 01:00:02;;;;;;;23.53;14.90;;;;;;;;;;4929607;29;20462;-90
2022/03/29 01:02:28;;;;;;;25.90;16.67;;;;;;;;;;4911921;29;20440;-89
2022/03/29 01:04:54;;;;;;;22.30;15.50;;;;;;;;;;4924283;29;20478;-89
2022/03/29 01:07:20;;;;;;;18.40;15.33;;;;;;;;;;4925615;29;20434;-89
2022/03/29 01:09:46;;;;;;;20.07;13.13;;;;;;;;;;4922533;29;21041;-89
2022/03/29 01:12:12;;;;;;;26.53;14.30;;;;;;;;;;4927005;29;20931;-89
2022/03/29 01:14:40;;;;;;;25.70;12.73;;;;;;;;;;4915970;29;20430;-90
2022/03/29 01:19:52;;;;;;;21.33;13.73;;;;;;;;;;4923833;29;20851;-90
2022/03/29 01:22:19;;;;;;;25.13;15.77;;;;;;;;;;4906738;29;20503;-90
2022/03/29 01:24:46;;;;;;;25.67;14.10;;;;;;;;;;4935734;29;20457;-89
2022/03/29 01:27:13;;;;;;;22.40;14.97;;;;;;;;;;4935667;29;20420;-90
2022/03/29 01:29:39;;;;;;;21.43;14.97;;;;;;;;;;4931121;29;20847;-90
2022/03/29 01:32:08;;;;;;;19.30;14.60;;;;;;;;;;4925116;29;20485;-90
2022/03/29 01:34:37;;;;;;;27.20;16.57;;;;;;;;;;4936015;29;20442;-89
2022/03/29 01:37:04;;;;;;;21.07;15.50;;;;;;;;;;4939543;29;20451;-89
2022/03/29 01:39:30;;;;;;;21.83;15.13;;;;;;;;;;4927365;29;20482;-90
2022/03/29 01:41:56;;;;;;;24.17;16.87;;;;;;;;;;4919337;29;20443;-90
2022/03/29 01:44:22;;;;;;;30.67;17.70;;;;;;;;;;4945692;29;20454;-88
2022/03/29 01:46:49;;;;;;;25.33;15.67;;;;;;;;;;4923553;29;20558;-89
2022/03/29 01:49:16;;;;;;;29.10;16.00;;;;;;;;;;4925317;29;20477;-90
2022/03/29 01:51:44;;;;;;;26.50;16.57;;;;;;;;;;4929435;29;20462;-90
2022/03/29 01:54:10;;;;;;;23.00;15.43;;;;;;;;;;4936996;29;20511;-88
2022/03/29 01:56:37;;;;;;;21.83;15.57;;;;;;;;;;4943070;29;20431;-89
2022/03/29 01:59:06;;;;;;;24.80;15.90;;;;;;;;;;4914989;29;20495;-89
2022/03/29 02:01:42;;;;;;;21.33;15.80;;;;;;;;;;4914427;29;20427;-89
2022/03/29 02:04:08;;;;;;;26.80;16.77;;;;;;;;;;4939797;29;20453;-89
2022/03/29 02:06:35;;;;;;;22.67;16.63;;;;;;;;;;4933497;29;20742;-89
2022/03/29 02:09:06;;;;;;;22.57;15.20;;;;;;;;;;4929555;29;20485;-89
2022/03/29 02:11:32;;;;;;;21.33;15.53;;;;;;;;;;4898680;29;20964;-89
2022/03/29 02:13:58;;;;;;;21.97;16.10;;;;;;;;;;4918079;29;20510;-89
2022/03/29 02:16:24;;;;;;;24.73;15.93;;;;;;;;;;4923937;29;20530;-89
2022/03/29 02:18:50;;;;;;;21.30;15.57;;;;;;;;;;4930108;29;20473;-89
2022/03/29 02:21:19;;;;;;;24.03;15.60;;;;;;;;;;4904864;29;20456;-89
2022/03/29 02:23:45;;;;;;;19.20;15.17;;;;;;;;;;4938367;29;20441;-89
2022/03/29 02:26:11;;;;;;;20.80;15.93;;;;;;;;;;4910269;29;20451;-89
2022/03/29 02:28:38;;;;;;;25.80;17.87;;;;;;;;;;4926523;29;20435;-89
2022/03/29 02:31:04;;;;;;;19.00;15.00;;;;;;;;;;4922397;29;20455;-89
2022/03/29 02:33:32;;;;;;;23.00;16.53;;;;;;;;;;4924754;29;20518;-89
2022/03/29 02:35:58;;;;;;;24.97;18.07;;;;;;;;;;4938952;29;20443;-89
2022/03/29 02:38:24;;;;;;;19.17;15.40;;;;;;;;;;4944535;29;20538;-89
2022/03/29 02:40:50;;;;;;;26.23;17.00;;;;;;;;;;4938971;29;20475;-89
2022/03/29 02:43:16;;;;;;;25.77;19.17;;;;;;;;;;4925455;29;20482;-89
2022/03/29 02:45:42;;;;;;;23.40;17.80;;;;;;;;;;4912140;29;20481;-89
2022/03/29 02:48:08;;;;;;;26.50;18.73;;;;;;;;;;4936320;29;20416;-89
2022/03/29 02:50:34;;;;;;;26.80;18.53;;;;;;;;;;4941342;29;20848;-89
2022/03/29 02:53:01;;;;;;;31.30;19.30;;;;;;;;;;4951503;29;20438;-89
2022/03/29 02:55:28;;;;;;;22.60;18.00;;;;;;;;;;4929836;29;20514;-88
2022/03/29 02:57:54;;;;;;;23.17;17.83;;;;;;;;;;4934091;29;20430;-89
2022/03/29 03:00:21;;;;;;;28.93;18.93;;;;;;;;;;4925166;29;20991;-89
2022/03/29 03:02:48;;;;;;;34.90;20.20;;;;;;;;;;4932146;29;20613;-89
2022/03/29 03:05:14;;;;;;;25.10;19.73;;;;;;;;;;4943899;29;20551;-89
2022/03/29 03:07:42;;;;;;;24.97;18.63;;;;;;;;;;4937212;29;20443;-89
2022/03/29 03:10:08;;;;;;;22.50;17.93;;;;;;;;;;4929538;29;20435;-89
2022/03/29 03:12:39;;;;;;;27.63;18.50;;;;;;;;;;4942600;29;20419;-89
2022/03/29 03:15:05;;;;;;;28.00;20.47;;;;;;;;;;4907861;29;20982;-89
2022/03/29 03:17:31;;;;;;;27.13;20.47;;;;;;;;;;4923054;29;20443;-89
2022/03/29 03:19:57;;;;;;;26.40;19.00;;;;;;;;;;4915327;29;20482;-90
2022/03/29 03:22:23;;;;;;;24.13;19.50;;;;;;;;;;4903369;29;20801;-89
2022/03/29 03:24:50;;;;;;;32.10;21.30;;;;;;;;;;4949568;29;20477;-90
2022/03/29 03:27:18;;;;;;;28.33;22.00;;;;;;;;;;4934980;29;20906;-88
2022/03/29 03:29:45;;;;;;;24.90;20.67;;;;;;;;;;4920863;29;20505;-89
2022/03/29 03:32:11;;;;;;;33.63;21.20;;;;;;;;;;4915016;29;20455;-89
2022/03/29 03:34:37;;;;;;;27.43;20.13;;;;;;;;;;4940793;29;20446;-89
2022/03/29 03:37:04;;;;;;;24.07;21.10;;;;;;;;;;4896937;29;20511;-90
2022/03/29 03:39:32;;;;;;;30.27;21.30;;;;;;;;;;4936068;29;20564;-89
2022/03/29 03:41:58;;;;;;;29.97;21.80;;;;;;;;;;4949551;29;20616;-89
2022/03/29 03:44:24;;;;;;;37.53;21.97;;;;;;;;;;4938454;29;20438;-89
2022/03/29 03:46:50;;;;;;;25.97;21.03;;;;;;;;;;4929642;29;20462;-90
2022/03/29 03:49:16;;;;;;;25.80;20.30;;;;;;;;;;4919651;29;20814;-90
2022/03/29 03:51:42;;;;;;;27.50;21.37;;;;;;;;;;4932243;29;20842;-90
2022/03/29 03:54:09;;;;;;;34.37;21.80;;;;;;;;;;4924608;29;20800;-89
2022/03/29 03:56:35;;;;;;;33.47;24.77;;;;;;;;;;4932562;29;20432;-89
2022/03/29 03:59:01;;;;;;;32.83;23.80;;;;;;;;;;4935484;29;20843;-90
2022/03/29 04:01:27;;;;;;;40.53;25.03;;;;;;;;;;4938318;29;20437;-90
2022/03/29 04:03:53;;;;;;;37.57;24.43;;;;;;;;;;4925670;29;20517;-90
2022/03/29 04:06:19;;;;;;;36.83;24.50;;;;;;;;;;4903168;29;20467;-90
2022/03/29 04:08:45;;;;;;;37.77;23.03;;;;;;;;;;4918499;29;20420;-91
2022/03/29 04:11:11;;;;;;;34.97;25.13;;;;;;;;;;4915708;29;20460;-90
2022/03/29 04:13:37;;;;;;;35.23;24.30;;;;;;;;;;4915940;29;21007;-90
2022/03/29 04:16:03;;;;;;;36.17;24.73;;;;;;;;;;4907108;29;20443;-90
2022/03/29 04:18:30;;;;;;;38.10;25.90;;;;;;;;;;4943767;29;20427;-90
2022/03/29 04:20:56;;;;;;;32.97;24.60;;;;;;;;;;4929530;29;20475;-89
2022/03/29 04:23:22;;;;;;;34.93;24.37;;;;;;;;;;4938410;29;20987;-89
2022/03/29 04:25:48;;;;;;;37.93;25.10;;;;;;;;;;4910616;29;20925;-90
2022/03/29 04:28:14;;;;;;;35.23;25.17;;;;;;;;;;4919872;29;20515;-89
2022/03/29 04:30:40;;;;;;;39.20;26.13;;;;;;;;;;4931973;29;20507;-89
2022/03/29 04:33:06;;;;;;;31.23;24.17;;;;;;;;;;4953260;29;20806;-89
2022/03/29 04:35:32;;;;;;;35.70;24.87;;;;;;;;;;4922028;29;20497;-89
2022/03/29 04:37:58;;;;;;;34.17;22.93;;;;;;;;;;4929104;29;20434;-92
2022/03/29 04:40:24;;;;;;;35.70;24.50;;;;;;;;;;4925733;29;20537;-89
2022/03/29 04:42:52;;;;;;;34.20;24.97;;;;;;;;;;4943347;29;20811;-89
2022/03/29 04:45:18;;;;;;;39.33;26.20;;;;;;;;;;4931251;29;20433;-89
2022/03/29 04:47:45;;;;;;;42.73;24.80;;;;;;;;;;4952907;29;20970;-89
2022/03/29 04:50:12;;;;;;;33.67;25.13;;;;;;;;;;4926214;29;20505;-89
2022/03/29 04:52:44;;;;;;;34.00;25.83;;;;;;;;;;4939217;29;20462;-91
2022/03/29 04:55:10;;;;;;;37.30;25.67;;;;;;;;;;4935961;29;20875;-88
2022/03/29 04:57:36;;;;;;;35.37;25.97;;;;;;;;;;4932228;29;20517;-90
2022/03/29 05:00:02;;;;;;;35.80;27.40;;;;;;;;;;4928814;29;20502;-90
2022/03/29 05:02:28;;;;;;;45.93;28.00;;;;;;;;;;4947131;29;20441;-90
2022/03/29 05:04:54;;;;;;;34.60;24.93;;;;;;;;;;4950641;29;20517;-90
2022/03/29 05:07:22;;;;;;;38.77;26.97;;;;;;;;;;4942820;29;20445;-90
2022/03/29 05:09:49;;;;;;;37.80;27.40;;;;;;;;;;4942070;29;20492;-89
2022/03/29 05:12:15;;;;;;;38.07;26.80;;;;;;;;;;4963372;29;20426;-90
2022/03/29 05:14:41;;;;;;;41.20;28.63;;;;;;;;;;4941595;29;20440;-89
2022/03/29 05:17:07;;;;;;;39.67;28.30;;;;;;;;;;4965183;29;20513;-88
2022/03/29 05:19:33;;;;;;;41.53;25.07;;;;;;;;;;4959409;29;20494;-90
2022/03/29 05:21:59;;;;;;;44.20;29.57;;;;;;;;;;4928868;29;20423;-89
2022/03/29 05:24:25;;;;;;;38.43;27.63;;;;;;;;;;4934384;29;20837;-88
2022/03/29 05:26:51;;;;;;;40.23;28.80;;;;;;;;;;4931667;29;20416;-89
2022/03/29 05:29:18;;;;;;;40.07;27.33;;;;;;;;;;4944425;29;20435;-90
2022/03/29 05:31:44;;;;;;;43.27;28.50;;;;;;;;;;4921847;29;20450;-90
2022/03/29 05:34:10;;;;;;;46.23;29.50;;;;;;;;;;4932414;29;20482;-89
2022/03/29 05:36:43;;;;;;;38.87;29.10;;;;;;;;;;4584024;29;10000395;-86
2022/03/29 05:39:09;;;;;;;45.00;29.20;;;;;;;;;;4901931;29;20459;-90
2022/03/29 05:41:35;;;;;;;40.17;27.23;;;;;;;;;;4920242;29;20442;-90
2022/03/29 05:44:01;;;;;;;46.27;30.50;;;;;;;;;;4917044;29;20447;-91
2022/03/29 05:49:14;;;;;;;50.03;29.27;;;;;;;;;;4919397;29;20495;-88
2022/03/29 05:51:39;;;;;;;40.40;28.20;;;;;;;;;;4943682;29;20454;-90
2022/03/29 05:54:06;;;;;;;38.03;28.00;;;;;;;;;;4928459;29;20531;-89
2022/03/29 05:56:32;;;;;;;44.73;31.27;;;;;;;;;;4909924;29;20447;-88
2022/03/29 05:58:59;;;;;;;46.47;28.00;;;;;;;;;;4923609;29;20494;-89
2022/03/29 06:01:25;;;;;;;44.80;29.47;;;;;;;;;;4935436;29;20454;-90
2022/03/29 06:03:51;;;;;;;42.67;29.57;;;;;;;;;;4926699;29;20414;-90
2022/03/29 06:06:17;;;;;;;41.80;28.90;;;;;;;;;;4917981;29;20490;-89
2022/03/29 06:08:43;;;;;;;44.57;28.23;;;;;;;;;;4922696;29;20419;-89
2022/03/29 06:11:09;;;;;;;41.10;28.40;;;;;;;;;;4907722;29;20864;-88
2022/03/29 06:13:36;;;;;;;38.50;28.43;;;;;;;;;;4934582;29;20761;-90
2022/03/29 06:16:02;;;;;;;43.23;27.63;;;;;;;;;;4920309;29;20538;-90
2022/03/29 06:18:30;;;;;;;50.77;29.30;;;;;;;;;;4920146;29;20419;-94
2022/03/29 06:20:56;;;;;;;41.97;30.20;;;;;;;;;;4952204;29;20490;-95
2022/03/29 06:23:25;;;;;;;46.73;29.93;;;;;;;;;;4918307;29;20972;-89
2022/03/29 06:25:54;;;;;;;43.80;29.47;;;;;;;;;;4970752;23;20934;-85
2022/03/29 06:28:22;;;;;;;43.93;30.30;;;;;;;;;;4912589;29;20479;-84
2022/03/29 06:30:49;;;;;;;46.73;31.90;;;;;;;;;;4908872;29;20472;-87
2022/03/29 06:33:20;;;;;;;44.87;31.50;;;;;;;;;;4927087;29;20922;-86
2022/03/29 06:35:47;;;;;;;43.50;30.33;;;;;;;;;;4925492;29;20801;-85
2022/03/29 06:38:23;;;;;;;;;;;;;;;;;;;;;
2022/03/29 06:41:17;;;;;;;61.03;31.00;;;;;;;;;;4930160;29;20642;-90
2022/03/29 06:43:49;;;;;;;48.67;32.30;;;;;;;;;;4923425;29;20429;-89
2022/03/29 06:46:50;;;;;;;48.33;29.90;;;;;;;;;;4940070;29;20438;-90
2022/03/29 06:53:04;;;;;;;48.33;29.50;;;;;;;;;;4904345;29;20448;-89
2022/03/29 06:55:44;;;;;;;43.10;30.50;;;;;;;;;;4924782;29;20436;-89
2022/03/29 06:58:10;;;;;;;50.13;29.80;;;;;;;;;;4897311;29;20460;-83
2022/03/29 07:00:37;;;;;;;46.23;31.13;;;;;;;;;;4879826;29;20513;-83
2022/03/29 07:03:03;;;;;;;49.00;33.70;;;;;;;;;;4889753;29;20974;-83
2022/03/29 07:05:29;;;;;;;47.90;33.60;;;;;;;;;;4884847;29;20921;-83
2022/03/29 07:07:55;;;;;;;44.53;32.30;;;;;;;;;;4886532;29;20842;-82
2022/03/29 07:13:06;;;;;;;49.10;32.53;;;;;;;;;;4897757;29;20463;-82
2022/03/29 07:15:34;;;;;;;48.07;32.90;;;;;;;;;;4883780;29;20869;-82
2022/03/29 07:18:18;;;;;;;46.50;32.27;;;;;;;;;;4897751;29;20442;-89
2022/03/29 07:21:10;;;;;;;44.30;32.03;;;;;;;;;;4894370;29;20874;-89
2022/03/29 07:26:50;;;;;;;48.00;34.70;;;;;;;;;;4884341;29;20441;-88
2022/03/29 07:29:45;;;;;;;51.10;33.83;;;;;;;;;;4905821;29;20784;-87
2022/03/29 07:40:30;;;;;;;47.43;33.70;;;;;;;;;;5038959;23;20494;-89
2022/03/29 07:43:23;;;;;;;45.83;32.93;;;;;;;;;;4935068;29;21061;-87
2022/03/29 07:46:15;;;;;;;48.97;31.37;;;;;;;;;;4958062;28;20427;-86
2022/03/29 07:48:46;;;;;;;56.40;37.50;;;;;;;;;;4944072;29;20431;-86
2022/03/29 07:51:12;;;;;;;52.00;36.77;;;;;;;;;;4930273;29;20486;-86
2022/03/29 07:53:40;;;;;;;55.03;36.80;;;;;;;;;;4950950;28;20448;-85
2022/03/29 07:56:09;;;;;;;58.20;36.90;;;;;;;;;;4929691;29;20450;-88
2022/03/29 07:58:38;;;;;;;60.93;37.77;;;;;;;;;;4940888;29;20439;-82
2022/03/29 08:01:05;;;;;;;51.67;34.53;;;;;;;;;;4932864;29;20489;-87
2022/03/29 08:03:42;;;;;;;55.87;38.40;;;;;;;;;;4948863;29;20418;-88
2022/03/29 08:06:20;;;;;;;56.77;39.23;;;;;;;;;;4914645;29;20515;-83
2022/03/29 08:09:04;;;;;;;50.90;36.30;;;;;;;;;;4942234;29;20455;-87
2022/03/29 08:14:14;;;;;;;58.30;36.60;;;;;;;;;;5068856;23;22170;-85
2022/03/29 08:16:41;;;;;;;65.43;39.80;;;;;;;;;;4945898;23;20484;-91
2022/03/29 08:19:07;;;;;;;60.93;39.33;;;;;;;;;;4907685;29;20477;-91
2022/03/29 08:21:52;;;;;;;62.63;39.40;;;;;;;;;;4907731;29;20498;-90
2022/03/29 08:24:19;;;;;;;61.63;39.57;;;;;;;;;;4910337;29;20422;-93
2022/03/29 08:26:48;;;;;;;59.33;37.70;;;;;;;;;;4900425;29;20472;-91
2022/03/29 08:29:17;;;;;;;59.90;38.67;;;;;;;;;;4904605;29;20439;-92
2022/03/29 08:31:44;;;;;;;63.00;40.50;;;;;;;;;;4900854;29;20860;-87
2022/03/29 08:34:10;;;;;;;67.90;41.43;;;;;;;;;;4907622;29;20596;-92
2022/03/29 08:36:38;;;;;;;72.63;43.80;;;;;;;;;;4888947;29;20565;-88
2022/03/29 08:39:04;;;;;;;61.00;39.73;;;;;;;;;;4904081;29;20441;-94
2022/03/29 08:41:51;;;;;;;70.37;44.60;;;;;;;;;;4899254;29;20445;-93
2022/03/29 08:44:23;;;;;;;69.00;41.03;;;;;;;;;;4913352;29;20405;-94
2022/03/29 08:46:49;;;;;;;77.50;40.67;;;;;;;;;;4857950;29;20434;-92
2022/03/29 08:49:18;;;;;;;69.60;42.60;;;;;;;;;;4925871;29;20487;-93
2022/03/29 08:51:47;;;;;;;73.43;46.13;;;;;;;;;;4920885;29;20852;-93
2022/03/29 08:54:14;;;;;;;71.63;43.50;;;;;;;;;;4906454;29;20432;-95
2022/03/29 08:56:40;;;;;;;71.93;42.77;;;;;;;;;;4906889;29;20435;-92
2022/03/29 08:59:06;;;;;;;73.27;42.40;;;;;;;;;;4920005;29;20468;-92
2022/03/29 09:01:35;;;;;;;71.10;43.10;;;;;;;;;;4913215;29;20436;-92
2022/03/29 09:04:04;;;;;;;68.63;42.57;;;;;;;;;;4913296;29;20713;-93
2022/03/29 09:06:48;;;;;;;66.63;39.93;;;;;;;;;;4909043;29;20439;-93
2022/03/29 09:09:22;;;;;;;62.53;41.53;;;;;;;;;;4902430;29;20451;-90
2022/03/29 09:11:48;;;;;;;71.00;38.60;;;;;;;;;;4923126;29;20420;-90
2022/03/29 09:14:38;;;;;;;63.90;42.33;;;;;;;;;;4913218;29;20405;-91
2022/03/29 09:17:26;;;;;;;57.73;39.37;;;;;;;;;;4927832;29;20475;-91
2022/03/29 09:20:09;;;;;;;56.00;38.70;;;;;;;;;;4927265;29;20505;-92
2022/03/29 09:22:56;;;;;;;60.03;38.37;;;;;;;;;;4907388;29;20435;-92
2022/03/29 09:25:33;;;;;;;59.13;35.73;;;;;;;;;;4905800;29;20429;-91
2022/03/29 09:28:04;;;;;;;58.90;38.93;;;;;;;;;;4908655;29;20432;-91
2022/03/29 09:30:53;;;;;;;68.40;41.80;;;;;;;;;;4903544;29;20476;-93
2022/03/29 09:33:22;;;;;;;62.93;39.70;;;;;;;;;;4903482;29;20433;-92
2022/03/29 09:36:00;;;;;;;61.13;39.47;;;;;;;;;;4923480;29;20489;-91
2022/03/29 09:38:32;;;;;;;62.07;37.80;;;;;;;;;;4910162;29;20906;-92
2022/03/29 09:40:58;;;;;;;64.70;41.37;;;;;;;;;;4902106;29;20468;-90
2022/03/29 09:43:26;;;;;;;73.10;44.00;;;;;;;;;;4900569;29;20445;-89
2022/03/29 09:45:53;;;;;;;70.87;42.37;;;;;;;;;;4893777;29;20447;-89
2022/03/29 09:48:27;;;;;;;69.20;40.30;;;;;;;;;;4898066;29;21072;-88
2022/03/29 09:50:54;;;;;;;77.93;43.27;;;;;;;;;;4909246;29;20426;-91
2022/03/29 09:53:37;;;;;;;83.63;46.63;;;;;;;;;;4906986;29;20453;-92
2022/03/29 09:56:16;;;;;;;91.73;48.20;;;;;;;;;;4901841;29;20440;-91
2022/03/29 09:58:45;;;;;;;87.33;47.70;;;;;;;;;;4923907;29;20520;-91
2022/03/29 10:01:22;;;;;;;92.67;48.60;;;;;;;;;;4920358;29;20537;-92
2022/03/29 10:03:49;;;;;;;81.97;47.43;;;;;;;;;;4910159;29;20814;-92
2022/03/29 10:06:17;;;;;;;95.83;51.57;;;;;;;;;;4927276;29;20429;-92
2022/03/29 10:11:34;;;;;;;85.83;47.13;;;;;;;;;;4909513;29;20472;-93
2022/03/29 10:14:03;;;;;;;106.63;51.67;;;;;;;;;;4917969;29;20429;-93
2022/03/29 10:16:32;;;;;;;87.07;49.93;;;;;;;;;;4916762;29;20467;-94
2022/03/29 10:19:00;;;;;;;93.33;47.50;;;;;;;;;;4930373;23;20488;-88
2022/03/29 10:21:26;;;;;;;84.53;47.07;;;;;;;;;;4894179;29;20474;-90
2022/03/29 10:23:53;;;;;;;75.53;46.80;;;;;;;;;;4881122;29;20489;-88
2022/03/29 10:26:24;;;;;;;75.50;44.03;;;;;;;;;;4902014;29;20470;-84
2022/03/29 10:28:51;;;;;;;76.60;45.50;;;;;;;;;;4870773;29;20515;-84
2022/03/29 10:31:48;;;;;;;68.93;46.67;;;;;;;;;;4870883;29;20426;-86
2022/03/29 10:40:04;;;;;;;58.77;40.20;;;;;;;;;;4938965;23;20844;-86
2022/03/29 10:42:49;;;;;;;63.77;39.97;;;;;;;;;;4934380;29;20432;-89
2022/03/29 10:48:18;;;;;;;57.83;39.50;;;;;;;;;;4900657;29;20446;-82
2022/03/29 10:50:44;;;;;;;76.23;44.50;;;;;;;;;;4945129;28;20455;-87
2022/03/29 10:53:26;;;;;;;63.50;43.23;;;;;;;;;;4929292;29;20423;-87
2022/03/29 10:56:12;;;;;;;69.60;43.47;;;;;;;;;;4920752;29;20546;-89
2022/03/29 10:58:57;;;;;;;76.57;43.87;;;;;;;;;;4910336;29;20512;-83
2022/03/29 11:01:23;;;;;;;76.37;44.90;;;;;;;;;;4942845;28;20550;-86
2022/03/29 11:04:14;;;;;;;77.10;48.50;;;;;;;;;;4916277;29;20487;-91
2022/03/29 11:07:01;;;;;;;91.03;49.93;;;;;;;;;;4919264;29;20491;-87
2022/03/29 11:09:27;;;;;;;93.10;51.87;;;;;;;;;;4918321;29;20419;-88
2022/03/29 11:11:53;;;;;;;106.90;52.77;;;;;;;;;;4926459;29;20456;-78
2022/03/29 11:14:30;;;;;;;96.10;51.07;;;;;;;;;;4910603;29;20444;-86
2022/03/29 11:17:16;;;;;;;104.47;53.80;;;;;;;;;;4895758;29;20572;-87
2022/03/29 11:19:54;;;;;;;93.67;51.33;;;;;;;;;;4900451;29;20477;-83
2022/03/29 11:22:24;;;;;;;89.23;49.50;;;;;;;;;;4893195;29;20655;-86
2022/03/29 11:24:51;;;;;;;85.73;46.13;;;;;;;;;;4898413;29;20432;-88
2022/03/29 11:27:22;;;;;;;93.60;51.97;;;;;;;;;;4901203;29;20476;-90
2022/03/29 11:29:51;;;;;;;93.63;52.77;;;;;;;;;;4888768;29;20451;-85
2022/03/29 11:32:26;;;;;;;94.10;50.40;;;;;;;;;;4888100;29;20522;-89
2022/03/29 11:34:55;;;;;;;93.40;52.17;;;;;;;;;;4917033;29;20407;-85
2022/03/29 11:37:54;;;;;;;82.77;48.10;;;;;;;;;;4902907;29;20440;-88
2022/03/29 11:40:39;;;;;;;92.00;47.53;;;;;;;;;;4869593;29;20490;-88
2022/03/29 11:43:10;;;;;;;85.47;49.90;;;;;;;;;;4899164;29;20424;-88
2022/03/29 11:45:41;;;;;;;80.30;46.03;;;;;;;;;;4900623;29;20425;-87
2022/03/29 11:48:19;;;;;;;81.97;42.63;;;;;;;;;;4951930;23;20489;-89
2022/03/29 11:50:54;;;;;;;88.27;48.93;;;;;;;;;;4866050;29;20787;-86
2022/03/29 11:53:23;;;;;;;86.10;49.27;;;;;;;;;;4513156;29;10000202;-86
2022/03/29 11:56:09;;;;;;;87.37;46.90;;;;;;;;;;4860859;29;20489;-87
2022/03/29 11:58:38;;;;;;;93.20;48.13;;;;;;;;;;4851940;29;20498;-89
2022/03/29 12:01:36;;;;;;;83.47;49.53;;;;;;;;;;4885816;29;20484;-87
2022/03/29 12:04:12;;;;;;;101.63;50.50;;;;;;;;;;4860519;29;20438;-87
2022/03/29 12:06:52;;;;;;;102.10;51.33;;;;;;;;;;4881748;29;20426;-85
2022/03/29 12:09:26;;;;;;;99.13;51.60;;;;;;;;;;4891561;29;20481;-86
2022/03/29 12:12:18;;;;;;;91.90;49.00;;;;;;;;;;4892592;29;20489;-87
2022/03/29 12:17:28;;;;;;;93.33;46.50;;;;;;;;;;4876468;29;20506;-90
2022/03/29 12:19:55;;;;;;;96.20;50.50;;;;;;;;;;4863057;23;20518;-81
2022/03/29 12:22:23;;;;;;;99.03;50.83;;;;;;;;;;4895677;29;20519;-83
2022/03/29 12:24:54;;;;;;;101.30;49.17;;;;;;;;;;4893972;29;20741;-84
2022/03/29 12:27:21;;;;;;;105.90;57.47;;;;;;;;;;4907096;29;20474;-82
2022/03/29 12:29:54;;;;;;;95.97;45.60;;;;;;;;;;4904470;29;20450;-80
2022/03/29 12:32:25;;;;;;;101.40;52.60;;;;;;;;;;4902155;29;20447;-81
2022/03/29 12:34:59;;;;;;;95.57;49.77;;;;;;;;;;4923484;29;20526;-79
2022/03/29 12:37:27;;;;;;;95.83;47.87;;;;;;;;;;4884906;29;20865;-80
2022/03/29 12:40:04;;;;;;;98.00;49.60;;;;;;;;;;4901507;29;20840;-81
2022/03/29 12:42:32;;;;;;;95.63;46.17;;;;;;;;;;4884456;29;20518;-83
2022/03/29 12:45:00;;;;;;;90.17;43.70;;;;;;;;;;4922132;29;20530;-80
2022/03/29 12:47:28;;;;;;;92.60;49.07;;;;;;;;;;4922004;29;20486;-81
2022/03/29 12:49:55;;;;;;;83.90;44.90;;;;;;;;;;4902948;29;20550;-79
2022/03/29 12:52:21;;;;;;;81.35;45.03;;;;;;;;;;4559844;29;10000017;-80
2022/03/29 12:54:55;;;;;;;82.20;44.50;;;;;;;;;;4918277;29;20203;-80
2022/03/29 12:57:22;;;;;;;71.43;41.17;;;;;;;;;;4898086;29;20439;-81
2022/03/29 12:59:52;;;;;;;84.03;46.37;;;;;;;;;;4905394;29;20482;-82
2022/03/29 13:02:31;;;;;;;74.63;43.93;;;;;;;;;;4903961;29;20471;-81
2022/03/29 13:04:57;;;;;;;81.23;41.83;;;;;;;;;;4907895;29;20503;-81
2022/03/29 13:07:48;;;;;;;74.40;43.03;;;;;;;;;;4908472;29;20527;-83
2022/03/29 13:10:15;;;;;;;82.33;46.47;;;;;;;;;;4904705;29;20431;-81
2022/03/29 13:13:08;;;;;;;71.97;41.77;;;;;;;;;;4906280;29;20441;-80
2022/03/29 13:15:54;;;;;;;69.97;41.17;;;;;;;;;;4914714;29;20544;-81
2022/03/29 13:18:34;;;;;;;69.53;42.17;;;;;;;;;;4918822;29;20428;-81
2022/03/29 13:21:08;;;;;;;77.37;40.10;;;;;;;;;;4910516;29;20490;-81
2022/03/29 13:23:40;;;;;;;66.50;41.83;;;;;;;;;;4907282;29;20435;-81
2022/03/29 13:26:08;;;;;;;67.17;39.37;;;;;;;;;;4907897;29;20723;-80
2022/03/29 13:28:40;;;;;;;62.53;37.73;;;;;;;;;;4903454;29;20936;-81
2022/03/29 13:31:10;;;;;;;58.90;38.17;;;;;;;;;;4888803;29;20444;-81
2022/03/29 13:33:36;;;;;;;55.60;38.80;;;;;;;;;;4910153;29;20432;-80
2022/03/29 13:36:07;;;;;;;59.80;36.70;;;;;;;;;;4931520;29;20462;-82
2022/03/29 13:38:33;;;;;;;67.67;39.53;;;;;;;;;;4931569;29;20450;-83
2022/03/29 13:40:59;;;;;;;56.80;39.83;;;;;;;;;;4913402;29;20498;-81
2022/03/29 13:43:26;;;;;;;53.67;36.37;;;;;;;;;;4903647;29;20428;-82
2022/03/29 13:45:52;;;;;;;55.53;39.50;;;;;;;;;;4930267;29;20446;-79
2022/03/29 13:48:18;;;;;;;51.97;37.63;;;;;;;;;;4894560;29;20448;-83
2022/03/29 13:50:48;;;;;;;49.43;36.33;;;;;;;;;;4892668;29;20444;-81
2022/03/29 13:53:23;;;;;;;50.97;34.93;;;;;;;;;;4903208;29;20939;-82
2022/03/29 13:55:50;;;;;;;54.70;34.63;;;;;;;;;;4896163;29;20468;-82
2022/03/29 13:58:16;;;;;;;52.50;38.20;;;;;;;;;;4900988;29;20468;-82
2022/03/29 14:00:43;;;;;;;46.20;35.50;;;;;;;;;;4903878;29;20523;-81
2022/03/29 14:03:09;;;;;;;49.43;37.33;;;;;;;;;;4907781;29;20440;-82
2022/03/29 14:05:42;;;;;;;41.67;32.83;;;;;;;;;;4905211;29;20837;-83
2022/03/29 14:08:09;;;;;;;48.90;36.03;;;;;;;;;;4902863;29;20798;-80
2022/03/29 14:10:36;;;;;;;44.07;33.60;;;;;;;;;;4904695;29;20844;-83
2022/03/29 14:13:03;;;;;;;40.50;30.57;;;;;;;;;;4904379;29;20448;-84
2022/03/29 14:15:29;;;;;;;43.70;32.87;;;;;;;;;;4911355;29;20599;-83
2022/03/29 14:17:56;;;;;;;39.50;30.70;;;;;;;;;;4904025;29;20444;-82
2022/03/29 14:20:23;;;;;;;37.80;30.47;;;;;;;;;;4901903;29;20480;-81
2022/03/29 14:22:49;;;;;;;41.60;31.00;;;;;;;;;;4903830;29;20588;-82
2022/03/29 14:25:16;;;;;;;36.57;27.07;;;;;;;;;;4904947;29;20966;-83
2022/03/29 14:27:42;;;;;;;34.60;26.77;;;;;;;;;;4906410;29;20436;-83
2022/03/29 14:30:09;;;;;;;32.27;27.63;;;;;;;;;;4893940;29;20472;-82
2022/03/29 14:32:36;;;;;;;31.30;25.00;;;;;;;;;;4903173;29;20430;-84
2022/03/29 14:35:05;;;;;;;32.80;26.17;;;;;;;;;;4904030;29;20468;-82
2022/03/29 14:37:34;;;;;;;32.13;25.73;;;;;;;;;;4912536;29;20439;-83
2022/03/29 14:40:10;;;;;;;29.90;25.93;;;;;;;;;;4905497;29;20486;-91
2022/03/29 14:42:37;;;;;;;28.93;23.20;;;;;;;;;;4903174;29;20471;-85
2022/03/29 14:45:04;;;;;;;34.93;26.20;;;;;;;;;;4905093;29;20455;-84
2022/03/29 14:47:31;;;;;;;30.93;26.27;;;;;;;;;;4902904;29;20428;-84
2022/03/29 14:49:57;;;;;;;28.10;23.57;;;;;;;;;;4906230;29;20425;-83
2022/03/29 14:52:23;;;;;;;28.93;23.50;;;;;;;;;;4906385;29;20719;-83
2022/03/29 14:54:49;;;;;;;27.73;23.43;;;;;;;;;;4907350;29;20429;-82
2022/03/29 14:57:16;;;;;;;32.10;23.00;;;;;;;;;;4903554;29;20444;-84
2022/03/29 14:59:42;;;;;;;25.60;21.53;;;;;;;;;;4903111;29;21000;-82
2022/03/29 15:02:11;;;;;;;25.20;21.93;;;;;;;;;;4907456;29;20433;-83
2022/03/29 15:04:38;;;;;;;24.23;21.17;;;;;;;;;;4904341;29;20413;-84
2022/03/29 15:07:05;;;;;;;26.73;21.10;;;;;;;;;;4910560;29;20443;-84
2022/03/29 15:09:31;;;;;;;23.50;19.87;;;;;;;;;;4930587;29;20422;-79
2022/03/29 15:11:57;;;;;;;35.77;28.87;;;;;;;;;;4913419;29;20442;-83
2022/03/29 15:14:23;;;;;;;27.03;22.40;;;;;;;;;;4904518;29;20409;-81
2022/03/29 15:16:49;;;;;;;32.27;23.53;;;;;;;;;;4899020;29;20510;-83